Terminal Aerodrome Forecast
Issued by NWS

Home | Current Version | Previous Version | Text Only | Print | Product List | Glossary Off
Versions: 1 2 3 4 5 6 7 8 9 10 11 12

000
FTUS43 KICT 181120
TAFRSL
TAF
KRSL 181120Z 1812/1912 34025G33KT P6SM VCSH OVC015
     FM181300 34027G35KT P6SM OVC020
     FM181400 33026G35KT P6SM BKN050
     FM181600 33025G33KT P6SM FEW200
     FM182300 33015G23KT P6SM SKC
     FM190000 32011KT P6SM FEW250
     FM190300 29007KT P6SM SKC=

USA.gov is the U.S. government's official web portal to all federal, state and local government web resources and services.